createdAt,value
2023-01-15T00:02:31.345Z,98248.28
2023-01-15T00:05:17.061Z,98278.13
2023-01-15T00:08:02.618Z,98235.66
2023-01-15T00:10:48.363Z,98378.59
2023-01-15T00:13:33.709Z,98406.22
2023-01-15T00:16:21.903Z,98410.19
2023-01-15T00:19:10.971Z,98436.75
2023-01-15T00:21:58.217Z,98262.56
2023-01-15T00:25:12.858Z,98420.72
2023-01-15T00:28:00.332Z,98210.75
2023-01-15T00:30:47.045Z,98200.66
2023-01-15T00:33:32.298Z,98337.66
2023-01-15T00:36:17.812Z,98242.38
2023-01-15T00:39:04.093Z,98353.25
2023-01-15T00:41:50.402Z,98380.72
2023-01-15T00:44:35.962Z,98251.84
2023-01-15T00:47:21.568Z,98341.97
2023-01-15T00:50:10.212Z,98367.91
2023-01-15T00:52:55.742Z,98399.03
2023-01-15T00:55:40.985Z,98192.28
2023-01-15T00:58:26.360Z,98406.44
2023-01-15T01:01:11.707Z,98388.03
2023-01-15T01:03:57.477Z,98373.47
2023-01-15T01:06:43.159Z,98327.28
2023-01-15T01:09:30.185Z,98317.41
2023-01-15T01:12:15.559Z,98277.13
2023-01-15T01:15:00.944Z,98295.66
2023-01-15T01:17:46.612Z,98300.06
2023-01-15T01:20:34.095Z,98384.53
2023-01-15T01:23:19.983Z,98205.75
2023-01-15T01:26:05.487Z,98183.63
2023-01-15T01:28:53.185Z,98130.31
2023-01-15T01:31:38.664Z,98285.53
2023-01-15T01:34:23.910Z,98195.94
2023-01-15T01:37:09.217Z,98267.72
2023-01-15T01:39:55.592Z,98308.69
2023-01-15T01:42:41.162Z,98372.03
2023-01-15T01:45:33.343Z,98166.50
2023-01-15T01:48:24.888Z,98289.25
2023-01-15T01:51:10.852Z,98159.81
2023-01-15T01:53:59.837Z,98338.44
2023-01-15T01:56:45.941Z,98161.47
2023-01-15T01:59:32.300Z,98184.44
2023-01-15T02:02:22.036Z,98320.22
2023-01-15T02:05:08.671Z,98288.84
2023-01-15T02:07:54.439Z,98296.19
2023-01-15T02:10:41.111Z,98312.41
2023-01-15T02:13:58.676Z,98349.34
2023-01-15T02:17:01.084Z,98173.06
2023-01-15T02:20:10.540Z,98172.31
2023-01-15T02:23:17.722Z,98334.56
2023-01-15T02:26:24.789Z,98128.66
2023-01-15T02:29:20.039Z,98342.50
2023-01-15T02:32:11.212Z,98209.44
2023-01-15T02:35:04.064Z,98105.91
2023-01-15T02:37:57.047Z,98147.03
2023-01-15T02:40:43.912Z,98190.50
2023-01-15T02:43:35.137Z,98151.75
2023-01-15T02:46:26.553Z,98263.25
2023-01-15T02:49:16.520Z,98250.00
2023-01-15T02:52:08.980Z,98120.03
2023-01-15T02:55:09.655Z,98276.44
2023-01-15T02:58:04.274Z,98080.03
2023-01-15T03:00:56.727Z,98226.47
2023-01-15T03:03:53.189Z,98221.13
2023-01-15T03:06:44.544Z,98118.88
2023-01-15T03:09:31.644Z,98069.56
2023-01-15T03:12:29.848Z,98215.66
2023-01-15T03:15:40.235Z,98213.53
2023-01-15T03:18:29.187Z,98059.72
2023-01-15T03:21:20.897Z,98239.38
2023-01-15T03:24:08.551Z,98242.78
2023-01-15T03:26:54.453Z,98085.22
2023-01-15T03:29:45.057Z,98243.75
2023-01-15T03:32:31.367Z,98238.56
2023-01-15T03:35:56.026Z,98237.09
2023-01-15T03:38:50.919Z,98179.97
2023-01-15T03:42:18.161Z,98247.56
2023-01-15T03:45:30.379Z,98158.25
2023-01-15T03:48:28.783Z,98225.28
2023-01-15T03:51:28.960Z,98233.41
2023-01-15T03:54:28.495Z,98251.53
2023-01-15T03:57:36.555Z,98108.88
2023-01-15T04:00:32.789Z,98128.97
2023-01-15T04:03:22.809Z,98071.78
2023-01-15T04:06:10.198Z,98108.22
2023-01-15T04:08:58.550Z,98232.28
2023-01-15T04:11:44.521Z,98213.25
2023-01-15T04:14:31.365Z,98219.91
2023-01-15T04:17:17.284Z,98176.78
2023-01-15T04:20:02.685Z,98023.13
2023-01-15T04:22:48.503Z,98007.13
2023-01-15T04:25:33.961Z,98192.16
2023-01-15T04:28:19.327Z,98011.78
2023-01-15T04:31:05.364Z,98153.72
2023-01-15T04:33:51.169Z,98155.28
2023-01-15T04:36:36.671Z,98038.69
2023-01-15T04:39:22.106Z,98222.50
2023-01-15T04:42:31.164Z,98218.34
2023-01-15T04:45:16.582Z,98023.22
2023-01-15T04:48:04.101Z,98207.25
2023-01-15T04:50:49.349Z,98003.53
2023-01-15T04:53:34.736Z,98010.47
2023-01-15T04:56:20.132Z,98186.44
2023-01-15T04:59:05.789Z,98056.31
2023-01-15T05:02:03.306Z,98178.03
2023-01-15T05:04:50.753Z,97993.19
2023-01-15T05:07:36.148Z,97985.34
2023-01-15T05:10:21.418Z,98026.97
2023-01-15T05:13:06.760Z,98175.06
2023-01-15T05:15:52.027Z,97988.53
2023-01-15T05:18:37.884Z,98174.09
2023-01-15T05:21:29.361Z,98127.94
2023-01-15T05:24:17.022Z,98073.47
2023-01-15T05:27:05.223Z,97992.69
2023-01-15T05:29:50.453Z,97970.00
2023-01-15T05:32:36.177Z,98171.63
2023-01-15T05:35:21.544Z,97987.81
2023-01-15T05:38:07.137Z,98013.44
2023-01-15T05:40:52.866Z,97968.84
2023-01-15T05:43:38.239Z,98165.72
2023-01-15T05:46:23.752Z,98137.63
2023-01-15T05:49:16.681Z,98124.06
2023-01-15T05:52:02.383Z,98076.53
2023-01-15T05:54:49.317Z,97963.63
2023-01-15T05:57:35.099Z,98146.22
2023-01-15T06:00:20.927Z,97950.25
2023-01-15T06:03:06.361Z,98004.56
2023-01-15T06:05:55.827Z,98057.50
2023-01-15T06:08:41.226Z,98083.09
2023-01-15T06:11:27.207Z,97968.53
2023-01-15T06:14:13.159Z,97965.78
2023-01-15T06:16:58.763Z,97987.75
2023-01-15T06:19:44.165Z,98129.88
2023-01-15T06:22:29.879Z,97975.66
2023-01-15T06:25:15.720Z,98145.16
2023-01-15T06:28:01.146Z,97945.34
2023-01-15T06:30:46.411Z,98137.75
2023-01-15T06:33:32.061Z,98123.13
2023-01-15T06:36:21.617Z,98092.06
2023-01-15T06:39:06.965Z,98122.53
2023-01-15T06:42:11.369Z,97927.22
2023-01-15T06:45:15.661Z,97982.28
2023-01-15T06:48:01.618Z,98130.03
2023-01-15T06:50:47.029Z,97939.69
2023-01-15T06:53:32.464Z,98118.22
2023-01-15T06:56:18.087Z,98109.56
2023-01-15T06:59:03.700Z,97914.91
2023-01-15T07:01:49.160Z,98104.03
2023-01-15T07:04:35.072Z,97920.28
2023-01-15T07:07:21.206Z,98054.94
2023-01-15T07:10:07.578Z,97947.50
2023-01-15T07:12:53.033Z,98111.53
2023-01-15T07:15:39.740Z,98132.34
2023-01-15T07:18:25.954Z,97916.41
2023-01-15T07:21:11.505Z,98118.97
2023-01-15T07:24:00.883Z,98112.44
2023-01-15T07:26:46.845Z,97898.88
2023-01-15T07:29:32.394Z,98091.28
2023-01-15T07:32:18.345Z,97904.91
2023-01-15T07:35:04.268Z,97900.25
2023-01-15T07:37:52.969Z,98047.88
2023-01-15T07:40:38.990Z,98051.41
2023-01-15T07:43:43.166Z,97907.06
2023-01-15T07:46:47.387Z,98051.28
2023-01-15T07:49:51.069Z,97924.69
2023-01-15T07:52:36.639Z,97875.03
2023-01-15T07:55:23.080Z,97904.22
2023-01-15T07:58:08.447Z,98034.31
2023-01-15T08:00:53.849Z,97942.22
2023-01-15T08:03:39.326Z,98080.38
2023-01-15T08:06:24.485Z,98063.84
2023-01-15T08:09:09.775Z,97848.19
2023-01-15T08:12:13.682Z,98049.00
2023-01-15T08:15:14.247Z,97914.88
2023-01-15T08:17:59.876Z,98072.97
2023-01-15T08:20:47.112Z,98023.66
2023-01-15T08:23:32.535Z,97870.16
2023-01-15T08:26:18.214Z,97913.97
2023-01-15T08:29:03.975Z,97873.75
2023-01-15T08:31:49.524Z,98024.78
2023-01-15T08:34:35.021Z,98028.72
2023-01-15T08:37:20.439Z,98026.81
2023-01-15T08:40:06.494Z,97984.13
2023-01-15T08:42:51.762Z,97874.00
2023-01-15T08:45:37.128Z,98039.03
2023-01-15T08:48:22.559Z,98042.00
2023-01-15T08:51:09.827Z,98039.50
2023-01-15T08:53:55.584Z,97990.09
2023-01-15T08:56:41.148Z,97977.06
2023-01-15T08:59:26.628Z,98031.22
2023-01-15T09:02:14.375Z,98018.47
2023-01-15T09:04:59.995Z,98050.28
2023-01-15T09:07:45.525Z,98011.03
2023-01-15T09:10:30.988Z,97907.06
2023-01-15T09:13:16.300Z,97812.81
2023-01-15T09:16:03.556Z,98037.09
2023-01-15T09:18:49.013Z,97568.69
2023-01-15T09:21:35.147Z,97914.94
2023-01-15T09:24:21.999Z,97941.47
2023-01-15T09:27:07.721Z,97983.53
2023-01-15T09:29:53.304Z,97968.06
2023-01-15T09:32:39.164Z,97950.06
2023-01-15T09:35:24.679Z,97859.66
2023-01-15T09:38:14.528Z,97993.53
2023-01-15T09:41:29.302Z,97812.75
2023-01-15T09:44:46.686Z,97953.78
2023-01-15T09:47:39.430Z,97985.41
2023-01-15T09:50:25.939Z,97977.84
2023-01-15T09:53:18.040Z,97964.78
2023-01-15T09:56:05.497Z,97950.06
2023-01-15T09:58:52.591Z,97852.34
2023-01-15T10:01:38.427Z,97946.69
2023-01-15T10:04:23.859Z,97965.00
2023-01-15T10:07:36.745Z,97904.22
2023-01-15T10:10:29.999Z,97955.31
2023-01-15T10:13:30.779Z,97939.75
2023-01-15T10:16:28.823Z,97944.59
2023-01-15T10:19:14.436Z,97807.06
2023-01-15T10:22:21.989Z,97950.22
2023-01-15T10:25:22.730Z,97944.34
2023-01-15T10:28:19.518Z,97976.97
2023-01-15T10:31:20.731Z,97895.31
2023-01-15T10:34:12.414Z,97926.63
2023-01-15T10:37:13.748Z,97923.09
2023-01-15T10:40:32.618Z,97895.91
2023-01-15T10:43:42.470Z,97930.47
2023-01-15T10:46:38.041Z,97766.66
2023-01-15T10:49:28.907Z,97911.19
2023-01-15T10:52:25.436Z,97929.28
2023-01-15T10:55:30.189Z,97929.16
2023-01-15T10:58:45.786Z,97895.97
2023-01-15T11:01:31.725Z,97824.72
2023-01-15T11:04:17.101Z,97902.09
2023-01-15T11:07:03.419Z,97699.38
2023-01-15T11:09:49.016Z,97873.34
2023-01-15T11:12:53.408Z,97843.50
2023-01-15T11:15:58.150Z,97835.56
2023-01-15T11:19:04.417Z,97697.16
2023-01-15T11:21:51.178Z,97843.03
2023-01-15T11:24:44.929Z,97683.06
2023-01-15T11:27:34.038Z,97848.91
2023-01-15T11:30:32.985Z,97764.34
2023-01-15T11:33:28.061Z,97805.06
2023-01-15T11:36:23.789Z,97789.53
2023-01-15T11:39:27.909Z,97770.25
2023-01-15T11:42:35.485Z,97754.88
2023-01-15T11:45:41.150Z,97783.16
2023-01-15T11:48:45.156Z,97709.34
2023-01-15T11:51:34.356Z,97585.34
2023-01-15T11:54:21.016Z,97734.88
2023-01-15T11:57:06.989Z,97689.31
2023-01-15T11:59:52.943Z,97694.97
2023-01-15T12:02:50.731Z,97631.94
2023-01-15T12:05:36.881Z,97571.97
2023-01-15T12:08:34.400Z,97760.84
2023-01-15T12:11:54.156Z,97777.50
2023-01-15T12:14:58.232Z,97787.00
2023-01-15T12:18:14.433Z,97754.84
2023-01-15T12:21:16.652Z,97770.16
2023-01-15T12:24:34.725Z,97562.66
2023-01-15T12:27:38.501Z,97752.25
2023-01-15T12:30:27.996Z,97687.59
2023-01-15T12:33:30.577Z,97711.72
2023-01-15T12:36:22.068Z,97774.50
2023-01-15T12:39:18.926Z,97600.25
2023-01-15T12:42:27.762Z,97574.06
2023-01-15T12:45:21.044Z,97752.25
2023-01-15T12:48:31.807Z,97746.78
2023-01-15T12:51:33.086Z,97573.66
2023-01-15T12:54:26.019Z,97599.91
2023-01-15T12:57:33.169Z,97742.34
2023-01-15T13:00:34.565Z,97732.06
2023-01-15T13:03:48.258Z,97657.16
2023-01-15T13:06:35.040Z,97723.69
2023-01-15T13:09:26.863Z,97717.78
2023-01-15T13:12:16.942Z,97626.66
2023-01-15T13:15:04.009Z,97691.38
2023-01-15T13:18:02.597Z,97697.66
2023-01-15T13:20:54.022Z,97528.59
2023-01-15T13:24:11.655Z,97669.31
2023-01-15T13:27:12.125Z,97702.75
2023-01-15T13:30:15.534Z,97728.66
2023-01-15T13:33:18.057Z,97675.53
2023-01-15T13:36:16.221Z,97531.00
2023-01-15T13:39:05.364Z,97627.28
2023-01-15T13:42:12.194Z,97680.25
2023-01-15T13:45:01.175Z,97728.97
2023-01-15T13:47:54.392Z,97563.53
2023-01-15T13:50:50.954Z,97736.22
2023-01-15T13:53:46.003Z,97582.53
2023-01-15T13:56:36.671Z,97745.53
2023-01-15T13:59:43.381Z,97560.41
2023-01-15T14:02:35.111Z,97702.22
2023-01-15T14:05:23.417Z,97709.47
2023-01-15T14:08:16.761Z,97615.16
2023-01-15T14:11:03.188Z,97659.06
2023-01-15T14:14:13.965Z,97525.50
2023-01-15T14:17:19.552Z,97706.38
2023-01-15T14:20:28.093Z,97709.03
2023-01-15T14:23:26.140Z,97710.97
2023-01-15T14:26:22.271Z,97616.84
2023-01-15T14:29:28.173Z,97517.22
2023-01-15T14:32:25.880Z,97724.91
2023-01-15T14:35:16.201Z,97668.88
2023-01-15T14:38:11.628Z,97531.47
2023-01-15T14:41:00.316Z,97718.03
2023-01-15T14:43:49.562Z,97668.16
2023-01-15T14:46:37.687Z,97656.41
2023-01-15T14:49:31.462Z,97692.09
2023-01-15T14:52:24.037Z,97714.06
2023-01-15T14:55:12.209Z,97700.31
2023-01-15T14:58:03.171Z,97734.94
2023-01-15T15:00:53.777Z,97515.59
2023-01-15T15:03:50.241Z,97598.53
2023-01-15T15:06:45.654Z,97602.44
2023-01-15T15:09:46.327Z,97678.59
2023-01-15T15:12:44.071Z,97678.19
2023-01-15T15:15:39.186Z,97636.00
2023-01-15T15:18:31.441Z,97483.94
2023-01-15T15:21:24.877Z,97690.41
2023-01-15T15:24:13.190Z,97696.09
2023-01-15T15:27:16.381Z,97684.13
2023-01-15T15:30:07.675Z,97528.22
2023-01-15T15:32:53.467Z,97674.88
2023-01-15T15:35:41.401Z,97483.31
2023-01-15T15:38:26.977Z,97644.16
2023-01-15T15:41:13.443Z,97608.38
2023-01-15T15:44:17.846Z,97684.03
2023-01-15T15:47:42.925Z,97652.22
2023-01-15T15:50:35.248Z,97642.56
2023-01-15T15:53:20.838Z,97486.88
2023-01-15T15:56:07.764Z,97607.94
2023-01-15T15:58:55.473Z,97630.41
2023-01-15T16:01:41.135Z,97650.97
2023-01-15T16:04:27.033Z,97498.00
2023-01-15T16:07:14.301Z,97674.06
2023-01-15T16:10:07.362Z,97550.03
2023-01-15T16:12:54.898Z,97494.53
2023-01-15T16:15:41.661Z,97583.41
2023-01-15T16:18:36.240Z,97638.91
2023-01-15T16:21:36.170Z,97523.59
2023-01-15T16:24:25.597Z,97650.25
2023-01-15T16:27:21.694Z,97557.06
2023-01-15T16:30:14.781Z,97675.13
2023-01-15T16:33:06.937Z,97635.44
2023-01-15T16:36:00.004Z,97657.47
2023-01-15T16:38:49.215Z,97665.06
2023-01-15T16:41:42.428Z,97609.63
2023-01-15T16:44:46.941Z,97563.34
2023-01-15T16:47:36.007Z,97551.09
2023-01-15T16:50:25.005Z,97664.19
2023-01-15T16:53:31.354Z,97690.25
2023-01-15T16:56:35.323Z,97666.94
2023-01-15T16:59:26.777Z,97679.31
2023-01-15T17:02:20.572Z,97665.47
2023-01-15T17:05:21.788Z,97639.03
2023-01-15T17:08:16.696Z,97701.72
2023-01-15T17:11:04.061Z,97480.38
2023-01-15T17:13:50.931Z,97699.69
2023-01-15T17:16:36.986Z,97662.53
2023-01-15T17:19:22.264Z,97616.97
2023-01-15T17:22:15.320Z,97637.44
2023-01-15T17:25:01.733Z,97511.38
2023-01-15T17:27:47.497Z,97485.06
2023-01-15T17:30:33.583Z,97574.88
2023-01-15T17:33:20.659Z,97462.31
2023-01-15T17:36:06.772Z,97487.28
2023-01-15T17:38:52.528Z,97605.84
2023-01-15T17:41:37.799Z,97657.91
2023-01-15T17:44:23.301Z,97677.75
2023-01-15T17:47:09.250Z,97641.31
2023-01-15T17:49:54.853Z,97482.44
2023-01-15T17:52:41.037Z,97503.03
2023-01-15T17:55:45.024Z,97690.88
2023-01-15T17:58:48.994Z,97514.34
2023-01-15T18:01:57.828Z,97468.41
2023-01-15T18:05:08.665Z,97628.72
2023-01-15T18:07:58.532Z,97494.84
2023-01-15T18:10:44.697Z,97504.72
2023-01-15T18:13:30.117Z,97660.44
2023-01-15T18:16:17.362Z,97479.13
2023-01-15T18:19:03.294Z,97436.97
2023-01-15T18:21:48.875Z,97634.09
2023-01-15T18:24:34.327Z,97674.69
2023-01-15T18:27:19.866Z,97671.88
2023-01-15T18:30:05.981Z,97463.47
2023-01-15T18:32:51.952Z,97650.16
2023-01-15T18:35:38.018Z,97630.00
2023-01-15T18:38:23.718Z,97620.75
2023-01-15T18:41:11.788Z,97449.63
2023-01-15T18:44:17.506Z,97562.41
2023-01-15T18:47:08.657Z,97636.91
2023-01-15T18:49:55.961Z,97448.72
2023-01-15T18:52:51.583Z,97620.94
2023-01-15T18:55:37.571Z,97593.66
2023-01-15T18:58:23.757Z,97622.72
2023-01-15T19:01:09.601Z,97574.38
2023-01-15T19:03:56.030Z,97567.03
2023-01-15T19:06:42.101Z,97559.56
2023-01-15T19:09:27.993Z,97482.47
2023-01-15T19:12:15.190Z,97553.56
2023-01-15T19:15:19.336Z,97418.53
2023-01-15T19:18:24.260Z,97560.28
2023-01-15T19:21:12.354Z,97542.66
2023-01-15T19:23:57.911Z,97588.53
2023-01-15T19:26:43.601Z,97413.50
2023-01-15T19:29:29.626Z,97570.97
2023-01-15T19:32:15.582Z,97586.31
2023-01-15T19:35:01.605Z,97570.03
2023-01-15T19:37:48.681Z,97461.94
2023-01-15T19:40:37.881Z,97566.47
2023-01-15T19:43:43.019Z,97567.63
2023-01-15T19:46:47.556Z,97605.41
2023-01-15T19:49:55.221Z,97424.38
2023-01-15T19:52:41.362Z,97585.06
2023-01-15T19:55:29.683Z,97601.66
2023-01-15T19:58:16.309Z,97587.56
2023-01-15T20:01:05.296Z,97419.34
2023-01-15T20:03:51.090Z,97601.03
2023-01-15T20:06:36.620Z,97617.59
2023-01-15T20:09:21.992Z,97545.00
2023-01-15T20:12:26.647Z,97580.84
2023-01-15T20:15:12.785Z,97623.25
2023-01-15T20:17:59.448Z,97543.53
2023-01-15T20:20:45.127Z,97486.22
2023-01-15T20:23:30.720Z,97384.50
2023-01-15T20:26:18.095Z,97484.78
2023-01-15T20:29:03.956Z,97620.94
2023-01-15T20:31:49.635Z,97560.94
2023-01-15T20:34:39.741Z,97569.84
2023-01-15T20:37:25.271Z,97481.50
2023-01-15T20:40:11.160Z,97469.03
2023-01-15T20:43:15.129Z,97625.91
2023-01-15T20:46:10.903Z,97643.41
2023-01-15T20:49:15.358Z,97640.47
2023-01-15T20:52:01.517Z,97476.13
2023-01-15T20:54:47.107Z,97567.53
2023-01-15T20:57:38.499Z,97673.25
2023-01-15T21:00:24.360Z,97627.25
2023-01-15T21:03:11.763Z,97622.63
2023-01-15T21:05:58.456Z,97642.16
2023-01-15T21:08:45.847Z,97654.56
2023-01-15T21:11:31.364Z,97485.38
2023-01-15T21:14:17.398Z,97664.50
2023-01-15T21:17:03.217Z,97646.34
2023-01-15T21:19:48.925Z,97691.09
2023-01-15T21:22:34.430Z,97624.72
2023-01-15T21:25:19.844Z,97475.31
2023-01-15T21:28:05.507Z,97693.63
2023-01-15T21:30:50.928Z,97506.13
2023-01-15T21:33:37.922Z,97505.09
2023-01-15T21:36:24.499Z,97481.59
2023-01-15T21:39:15.115Z,97444.03
2023-01-15T21:42:19.222Z,97457.47
2023-01-15T21:45:06.246Z,97581.91
2023-01-15T21:47:51.662Z,97647.22
2023-01-15T21:50:37.850Z,97459.38
2023-01-15T21:53:23.792Z,97668.22
2023-01-15T21:56:09.590Z,97483.50
2023-01-15T21:58:55.149Z,97690.47
2023-01-15T22:01:41.308Z,97672.81
2023-01-15T22:04:28.845Z,97683.53
2023-01-15T22:07:16.628Z,97639.22
2023-01-15T22:10:02.166Z,97466.09
2023-01-15T22:12:47.845Z,97649.00
2023-01-15T22:15:33.254Z,97483.63
2023-01-15T22:18:18.714Z,97611.63
2023-01-15T22:21:08.451Z,97527.78
2023-01-15T22:23:55.839Z,97638.69
2023-01-15T22:26:43.621Z,97563.44
2023-01-15T22:29:41.030Z,97510.78
2023-01-15T22:32:26.594Z,97515.28
2023-01-15T22:35:12.093Z,97442.28
2023-01-15T22:37:57.425Z,97633.47
2023-01-15T22:40:42.922Z,97584.66
2023-01-15T22:43:33.471Z,97517.91
2023-01-15T22:46:18.840Z,97626.53
2023-01-15T22:49:04.407Z,97421.66
2023-01-15T22:51:50.779Z,97583.28
2023-01-15T22:54:36.174Z,97587.78
2023-01-15T22:57:22.522Z,97401.31
2023-01-15T23:00:08.474Z,97609.63
2023-01-15T23:03:04.791Z,97485.94
2023-01-15T23:05:50.298Z,97440.94
2023-01-15T23:08:36.180Z,97575.84
2023-01-15T23:11:21.876Z,97645.75
2023-01-15T23:14:09.007Z,97619.19
2023-01-15T23:16:54.910Z,97465.69
2023-01-15T23:19:40.393Z,97572.50
2023-01-15T23:22:25.864Z,97525.06
2023-01-15T23:25:11.716Z,97660.75
2023-01-15T23:27:57.050Z,97642.56
2023-01-15T23:30:42.457Z,97412.66
2023-01-15T23:33:27.861Z,97616.31
2023-01-15T23:36:13.621Z,97610.88
2023-01-15T23:38:59.093Z,97640.06
2023-01-15T23:42:03.073Z,97624.59
2023-01-15T23:45:07.363Z,97603.19
2023-01-15T23:47:52.747Z,97620.09
2023-01-15T23:50:38.115Z,97577.91
2023-01-15T23:53:23.279Z,97610.22
2023-01-15T23:56:09.064Z,97478.09
2023-01-15T23:58:54.646Z,97297.28
